Terminal Aerodrome Forecast
Issued by NWS Blacksburg, VA

Home | Current Version | Previous Version | Text Only | Print | Product List | Glossary On
Versions: 1 2 3 4 5 6 7 8 9 10 11 12 13 14 15 16 17 18 19 20 21 22 23 24 25 26 27 28 29 30
000
FTUS41 KRNK 212340 AAB
TAFLYH
TAF AMD
KLYH 212340Z 2200/2224 VRB03KT P6SM SCT060 BKN250
      TEMPO 2209/2212 2SM BR SCT005
     FM221600 24008G16KT P6SM VCTS SCT060CB BKN100=

USA.gov is the U.S. government's official web portal to all federal, state and local government web resources and services.